Sign in

Advertise on goboko.com

You can reach many thousands of active pilots each month by advertising on goboko.com.

Please contact us for details.

Advertising

Info

Aviation weather - KJYO

METAR KJYO 281035Z AUTO 23006KT 10SM CLR 20/20 A2963 RMK AO2

TAF KIAD 270520Z 2706/2812 VRB03KT P6SM VCSH BKN050 OVC130 FM271600 22008KT P6SM VCTS BKN050CB BKN130 FM272200 22007KT 5SM SHRA VCTS BKN050CB BKN130 FM280500 21007KT P6SM SCT050 SCT130

ADDS Experimental. Do not use for flight-related decisions.

Javascript required. Ce site nécessite javascript